Time;durP1;ratioP1;P1;durP2;ratioP2;P2;SDS_P1;SDS_P2;PMS_P1;PMS_P2;Temp;Humidity;BMP_temperature;BMP_pressure;BME280_temperature;BME280_humidity;BME280_pressure;Samples;Min_cycle;Max_cycle;Signal;HPM_P1;HPM_P2
2021/08/18 00:02:09;;;;;;;17.83;12.87;;;15.40;99.90;;;;;;4973390;28;20173;-63
2021/08/18 00:04:35;;;;;;;18.90;13.77;;;15.30;99.90;;;;;;4973076;28;20235;-63
2021/08/18 00:07:00;;;;;;;16.30;12.43;;;15.30;99.90;;;;;;4972915;28;20176;-63
2021/08/18 00:09:26;;;;;;;16.47;12.80;;;15.40;99.90;;;;;;4972685;28;20436;-63
2021/08/18 00:11:52;;;;;;;16.00;12.50;;;15.50;99.90;;;;;;4970543;28;20172;-63
2021/08/18 00:14:17;;;;;;;15.70;12.20;;;15.50;99.90;;;;;;4955202;28;20567;-63
2021/08/18 00:16:43;;;;;;;16.60;12.73;;;15.50;99.90;;;;;;4972414;28;20177;-63
2021/08/18 00:19:08;;;;;;;15.97;12.23;;;15.50;99.90;;;;;;4972558;28;20670;-63
2021/08/18 00:21:34;;;;;;;15.60;12.33;;;15.40;99.90;;;;;;4973242;28;20562;-63
2021/08/18 00:23:59;;;;;;;18.03;12.37;;;15.40;99.90;;;;;;4973005;28;20223;-63
2021/08/18 00:26:28;;;;;;;16.80;12.07;;;15.30;99.90;;;;;;4971021;28;20180;-63
2021/08/18 00:28:54;;;;;;;17.90;12.57;;;15.40;99.90;;;;;;4972151;28;20192;-63
2021/08/18 00:31:21;;;;;;;15.87;12.50;;;15.30;99.90;;;;;;4972905;28;21068;-63
2021/08/18 00:33:47;;;;;;;16.50;12.33;;;15.40;99.90;;;;;;4973364;28;20521;-63
2021/08/18 00:36:12;;;;;;;18.27;14.10;;;15.40;99.90;;;;;;4972922;28;20435;-63
2021/08/18 00:38:38;;;;;;;18.40;13.43;;;15.50;99.90;;;;;;4972091;28;20447;-63
2021/08/18 00:41:04;;;;;;;15.20;11.93;;;15.60;99.90;;;;;;4973007;28;20176;-63
2021/08/18 00:43:29;;;;;;;17.73;13.03;;;15.60;99.90;;;;;;4971492;28;20204;-63
2021/08/18 00:45:55;;;;;;;17.77;13.47;;;15.60;99.90;;;;;;4972787;28;20534;-64
2021/08/18 00:48:20;;;;;;;17.23;13.07;;;15.50;99.90;;;;;;4972334;28;20205;-64
2021/08/18 00:50:46;;;;;;;17.80;13.10;;;15.50;99.90;;;;;;4965605;28;20211;-64
2021/08/18 00:53:13;;;;;;;17.83;13.10;;;15.60;99.90;;;;;;4971740;28;20230;-63
2021/08/18 00:55:40;;;;;;;19.63;13.10;;;15.60;99.90;;;;;;4972872;28;20172;-63
2021/08/18 00:58:07;;;;;;;16.23;13.30;;;15.50;99.90;;;;;;4967268;28;20846;-64
2021/08/18 01:00:33;;;;;;;18.50;13.60;;;15.50;99.90;;;;;;4972728;28;20462;-63
2021/08/18 01:02:58;;;;;;;20.23;13.17;;;15.60;99.90;;;;;;4972656;28;20879;-63
2021/08/18 01:05:30;;;;;;;15.90;12.53;;;15.50;99.90;;;;;;4971859;28;20215;-64
2021/08/18 01:07:58;;;;;;;17.60;14.20;;;15.60;99.90;;;;;;4972743;28;20188;-63
2021/08/18 01:10:25;;;;;;;19.13;13.90;;;15.70;99.90;;;;;;4974544;28;20432;-64
2021/08/18 01:12:52;;;;;;;18.00;13.47;;;15.70;99.90;;;;;;4975606;28;21011;-64
2021/08/18 01:15:20;;;;;;;15.67;12.30;;;15.60;99.90;;;;;;4974674;28;21012;-64
2021/08/18 01:17:49;;;;;;;18.40;13.83;;;15.60;99.90;;;;;;4975705;28;20439;-63
2021/08/18 01:20:24;;;;;;;19.90;14.90;;;15.60;99.90;;;;;;4975520;28;20435;-64
2021/08/18 01:22:50;;;;;;;21.30;15.23;;;15.40;99.90;;;;;;4975856;28;20466;-64
2021/08/18 01:25:16;;;;;;;20.63;15.33;;;15.30;99.90;;;;;;4976244;28;20504;-63
2021/08/18 01:27:50;;;;;;;19.80;14.27;;;15.20;99.90;;;;;;4975903;28;20443;-63
2021/08/18 01:30:18;;;;;;;20.87;14.60;;;15.20;99.90;;;;;;4975523;28;20176;-63
2021/08/18 01:32:53;;;;;;;19.80;14.17;;;15.20;99.90;;;;;;4975213;28;20455;-64
2021/08/18 01:35:25;;;;;;;19.73;14.53;;;15.20;99.90;;;;;;4975825;28;20431;-64
2021/08/18 01:37:51;;;;;;;20.67;14.17;;;15.20;99.90;;;;;;4971966;28;20423;-64
2021/08/18 01:40:17;;;;;;;19.30;14.80;;;15.30;99.90;;;;;;4975582;28;20996;-63
2021/08/18 01:42:43;;;;;;;23.17;15.97;;;15.30;99.90;;;;;;4975312;28;20457;-63
2021/08/18 01:45:10;;;;;;;19.47;14.77;;;15.20;99.90;;;;;;4970916;28;20948;-63
2021/08/18 01:47:36;;;;;;;19.53;15.87;;;15.20;99.90;;;;;;4974768;28;20177;-63
2021/08/18 01:50:03;;;;;;;20.60;15.00;;;15.10;99.90;;;;;;4975109;28;20447;-63
2021/08/18 01:52:28;;;;;;;24.40;15.73;;;15.20;99.90;;;;;;4976092;28;20200;-64
2021/08/18 01:54:54;;;;;;;21.90;15.00;;;15.20;99.90;;;;;;4975393;28;20460;-64
2021/08/18 01:57:20;;;;;;;20.67;14.90;;;15.20;99.90;;;;;;4965930;28;20183;-63
2021/08/18 01:59:46;;;;;;;23.43;15.23;;;15.20;99.90;;;;;;4973155;28;20349;-64
2021/08/18 02:02:11;;;;;;;20.33;15.57;;;15.10;99.90;;;;;;4975528;28;20455;-63
2021/08/18 02:04:37;;;;;;;25.03;15.87;;;15.10;99.90;;;;;;4975692;28;20243;-64
2021/08/18 02:07:03;;;;;;;22.70;15.60;;;15.00;99.90;;;;;;4975798;28;20194;-63
2021/08/18 02:09:29;;;;;;;24.63;15.70;;;15.00;99.90;;;;;;4975203;28;20583;-63
2021/08/18 02:11:54;;;;;;;21.43;15.27;;;15.00;99.90;;;;;;4975051;28;20511;-64
2021/08/18 02:14:20;;;;;;;27.87;16.77;;;15.00;99.90;;;;;;4974255;28;20290;-63
2021/08/18 02:16:46;;;;;;;27.03;16.87;;;14.90;99.90;;;;;;4974030;28;20168;-63
2021/08/18 02:19:11;;;;;;;22.40;16.27;;;14.80;99.90;;;;;;4974779;28;20204;-63
2021/08/18 02:21:37;;;;;;;21.57;14.73;;;14.80;99.90;;;;;;4974699;28;20444;-63
2021/08/18 02:24:03;;;;;;;23.90;14.97;;;14.80;99.90;;;;;;4973751;28;20642;-63
2021/08/18 02:26:28;;;;;;;24.77;15.07;;;14.80;99.90;;;;;;4975151;28;20608;-64
2021/08/18 02:28:54;;;;;;;24.40;17.50;;;14.80;99.90;;;;;;4964429;28;20650;-64
2021/08/18 02:31:19;;;;;;;24.03;15.93;;;14.80;99.90;;;;;;4975124;28;20616;-63
2021/08/18 02:33:45;;;;;;;22.57;15.73;;;14.80;99.90;;;;;;4974362;28;20294;-64
2021/08/18 02:36:10;;;;;;;23.60;15.07;;;14.80;99.90;;;;;;4974411;28;20255;-63
2021/08/18 02:38:36;;;;;;;23.03;15.10;;;14.80;99.90;;;;;;4974670;28;20215;-64
2021/08/18 02:41:01;;;;;;;20.33;14.63;;;14.80;99.90;;;;;;4974271;28;20599;-64
2021/08/18 02:43:27;;;;;;;20.00;14.67;;;14.80;99.90;;;;;;4973221;28;20208;-63
2021/08/18 02:45:53;;;;;;;21.33;14.50;;;14.80;99.90;;;;;;4975019;28;20180;-64
2021/08/18 02:48:19;;;;;;;21.80;15.30;;;14.70;99.90;;;;;;4974708;28;20184;-64
2021/08/18 02:50:44;;;;;;;24.03;17.23;;;14.80;99.90;;;;;;4955415;28;20446;-64
2021/08/18 02:53:10;;;;;;;20.80;14.97;;;14.90;99.90;;;;;;4974492;28;20200;-64
2021/08/18 02:55:36;;;;;;;21.20;15.63;;;14.90;99.90;;;;;;4957129;28;20279;-64
2021/08/18 02:58:02;;;;;;;20.17;15.90;;;14.90;99.90;;;;;;4974529;28;20557;-64
2021/08/18 03:00:27;;;;;;;25.47;15.50;;;15.00;99.90;;;;;;4964495;28;20670;-64
2021/08/18 03:02:53;;;;;;;19.57;14.33;;;15.00;99.90;;;;;;4974188;28;20455;-63
2021/08/18 03:05:19;;;;;;;27.83;17.07;;;14.90;99.90;;;;;;4974313;28;20595;-64
2021/08/18 03:07:44;;;;;;;17.83;14.70;;;14.90;99.90;;;;;;4974372;28;20263;-63
2021/08/18 03:10:10;;;;;;;21.67;14.77;;;14.90;99.90;;;;;;4974199;28;20883;-63
2021/08/18 03:12:36;;;;;;;17.97;12.87;;;14.90;99.90;;;;;;4972910;28;20196;-63
2021/08/18 03:15:05;;;;;;;20.70;14.80;;;14.90;99.90;;;;;;4974107;28;20462;-63
2021/08/18 03:17:31;;;;;;;22.13;14.87;;;14.80;99.90;;;;;;4973903;28;20455;-64
2021/08/18 03:19:56;;;;;;;18.00;14.90;;;14.80;99.90;;;;;;4972636;28;20474;-64
2021/08/18 03:22:22;;;;;;;17.23;14.17;;;14.80;99.90;;;;;;4973919;28;20668;-64
2021/08/18 03:24:48;;;;;;;21.50;15.10;;;14.80;99.90;;;;;;4973561;28;20631;-64
2021/08/18 03:27:13;;;;;;;19.90;14.77;;;14.80;99.90;;;;;;4974030;28;20255;-64
2021/08/18 03:29:39;;;;;;;20.70;14.33;;;14.80;99.90;;;;;;4973882;28;20183;-64
2021/08/18 03:32:05;;;;;;;19.30;13.50;;;14.80;99.90;;;;;;4973035;28;20259;-64
2021/08/18 03:34:30;;;;;;;19.67;14.10;;;14.80;99.90;;;;;;4974013;28;20215;-63
2021/08/18 03:36:56;;;;;;;18.17;13.33;;;14.70;99.90;;;;;;4973609;28;20805;-64
2021/08/18 03:39:21;;;;;;;18.37;13.57;;;14.70;99.90;;;;;;4972986;28;20180;-64
2021/08/18 03:41:47;;;;;;;19.03;14.40;;;14.70;99.90;;;;;;4973674;28;20211;-63
2021/08/18 03:44:12;;;;;;;18.33;13.27;;;14.70;99.90;;;;;;4972108;28;20348;-64
2021/08/18 03:46:38;;;;;;;16.60;13.40;;;14.60;99.90;;;;;;4972320;28;20180;-63
2021/08/18 03:49:03;;;;;;;19.97;14.13;;;14.80;99.90;;;;;;4973231;28;20662;-64
2021/08/18 03:51:29;;;;;;;17.10;13.00;;;14.90;99.90;;;;;;4973342;28;20191;-63
2021/08/18 03:53:54;;;;;;;19.17;13.83;;;15.00;99.90;;;;;;4973520;28;20223;-64
2021/08/18 03:56:20;;;;;;;17.03;13.23;;;15.00;99.90;;;;;;4972597;28;20184;-64
2021/08/18 03:58:45;;;;;;;19.57;13.67;;;15.10;99.90;;;;;;4972699;28;20243;-64
2021/08/18 04:01:11;;;;;;;17.77;11.57;;;15.00;99.90;;;;;;4973611;28;20180;-63
2021/08/18 04:03:36;;;;;;;16.07;12.37;;;15.00;99.90;;;;;;4970499;28;20271;-63
2021/08/18 04:06:02;;;;;;;16.40;13.17;;;15.00;99.90;;;;;;4972869;28;20239;-63
2021/08/18 04:08:28;;;;;;;15.80;11.60;;;15.00;99.90;;;;;;4957112;28;20235;-63
2021/08/18 04:10:53;;;;;;;16.53;12.37;;;15.00;99.90;;;;;;4973399;28;20207;-63
2021/08/18 04:13:19;;;;;;;17.67;11.03;;;15.00;99.90;;;;;;4973088;28;20243;-63
2021/08/18 04:15:44;;;;;;;16.73;12.37;;;14.90;99.90;;;;;;4973401;28;20238;-63
2021/08/18 04:18:11;;;;;;;15.03;11.50;;;15.00;99.90;;;;;;4972864;28;20705;-63
2021/08/18 04:20:37;;;;;;;14.03;11.37;;;14.90;99.90;;;;;;4972795;28;20264;-63
2021/08/18 04:23:03;;;;;;;17.60;11.77;;;14.90;99.90;;;;;;4973929;28;20562;-63
2021/08/18 04:25:29;;;;;;;18.27;11.13;;;14.70;99.90;;;;;;4972317;28;20538;-63
2021/08/18 04:27:55;;;;;;;17.73;12.37;;;14.50;99.90;;;;;;4972672;28;20774;-63
2021/08/18 04:30:21;;;;;;;16.20;12.30;;;14.40;99.90;;;;;;4971915;28;20446;-63
2021/08/18 04:32:47;;;;;;;16.97;10.47;;;14.40;99.90;;;;;;4972872;28;20203;-63
2021/08/18 04:35:14;;;;;;;16.67;11.87;;;14.40;99.90;;;;;;4972550;28;20799;-63
2021/08/18 04:37:40;;;;;;;14.90;10.30;;;14.40;99.90;;;;;;4972550;28;20184;-63
2021/08/18 04:40:11;;;;;;;14.70;9.80;;;14.40;99.90;;;;;;4972585;28;20436;-63
2021/08/18 04:42:41;;;;;;;15.23;11.43;;;14.40;99.90;;;;;;4972408;28;20188;-63
2021/08/18 04:45:09;;;;;;;15.40;11.10;;;14.40;99.90;;;;;;4972922;28;20513;-63
2021/08/18 04:47:35;;;;;;;13.43;9.40;;;14.40;99.90;;;;;;4972141;28;20447;-63
2021/08/18 04:50:02;;;;;;;16.93;10.50;;;14.30;99.90;;;;;;4971258;28;20450;-63
2021/08/18 04:52:27;;;;;;;10.90;9.50;;;14.30;99.90;;;;;;4962565;28;20463;-63
2021/08/18 04:54:53;;;;;;;14.20;9.80;;;14.30;99.90;;;;;;4968953;28;20969;-63
2021/08/18 04:57:19;;;;;;;13.07;9.80;;;14.40;99.90;;;;;;4970078;28;20187;-63
2021/08/18 04:59:45;;;;;;;9.80;8.83;;;14.50;99.90;;;;;;4971567;28;20462;-63
2021/08/18 05:02:10;;;;;;;10.70;9.43;;;14.60;99.90;;;;;;4972325;28;20185;-62
2021/08/18 05:04:36;;;;;;;14.10;10.10;;;14.70;99.90;;;;;;4972596;28;20219;-62
2021/08/18 05:07:02;;;;;;;13.07;10.10;;;14.70;99.90;;;;;;4972713;28;20235;-65
2021/08/18 05:09:28;;;;;;;9.83;8.23;;;14.80;99.90;;;;;;4972208;28;20180;-65
2021/08/18 05:11:54;;;;;;;13.00;9.10;;;14.80;99.90;;;;;;4972602;28;20439;-65
2021/08/18 05:14:21;;;;;;;11.50;8.60;;;14.80;99.90;;;;;;4972388;28;20219;-66
2021/08/18 05:16:47;;;;;;;15.60;9.67;;;14.80;99.90;;;;;;4954936;28;20522;-66
2021/08/18 05:19:12;;;;;;;10.23;8.53;;;14.80;99.90;;;;;;4972043;28;20511;-66
2021/08/18 05:21:38;;;;;;;11.07;8.93;;;14.80;99.90;;;;;;4972561;28;20178;-66
2021/08/18 05:24:04;;;;;;;11.93;8.80;;;14.70;99.90;;;;;;4972299;28;20211;-66
2021/08/18 05:26:30;;;;;;;12.40;9.00;;;14.70;99.90;;;;;;4972361;28;20574;-66
2021/08/18 05:28:55;;;;;;;9.10;7.33;;;14.80;99.90;;;;;;4972387;28;20184;-66
2021/08/18 05:31:21;;;;;;;11.90;7.90;;;14.80;99.90;;;;;;4972224;28;20435;-66
2021/08/18 05:33:46;;;;;;;8.20;7.40;;;14.80;99.90;;;;;;4972141;28;20208;-65
2021/08/18 05:36:12;;;;;;;10.50;7.60;;;14.90;99.90;;;;;;4968013;28;20234;-66
2021/08/18 05:38:37;;;;;;;10.47;7.77;;;14.90;99.90;;;;;;4961693;28;20177;-66
2021/08/18 05:41:03;;;;;;;11.13;8.53;;;14.90;99.90;;;;;;4954391;28;20411;-66
2021/08/18 05:43:29;;;;;;;9.13;8.23;;;14.90;99.90;;;;;;4965544;28;20209;-67
2021/08/18 05:45:54;;;;;;;9.40;7.43;;;15.00;99.90;;;;;;4971931;28;20176;-65
2021/08/18 05:48:20;;;;;;;9.63;7.00;;;15.10;99.90;;;;;;4971059;28;20570;-65
2021/08/18 05:50:45;;;;;;;9.60;7.90;;;15.20;99.90;;;;;;4971185;28;20678;-65
2021/08/18 05:53:15;;;;;;;13.97;7.93;;;15.30;99.90;;;;;;4972304;28;20294;-65
2021/08/18 05:55:42;;;;;;;8.77;7.03;;;15.30;99.90;;;;;;4973630;28;20602;-65
2021/08/18 05:58:08;;;;;;;10.07;9.07;;;15.20;99.90;;;;;;4975494;28;20463;-65
2021/08/18 06:00:34;;;;;;;7.63;6.77;;;15.30;99.90;;;;;;4975412;28;20496;-65
2021/08/18 06:03:00;;;;;;;12.43;8.40;;;15.30;99.90;;;;;;4974699;28;20200;-65
2021/08/18 06:05:25;;;;;;;8.53;6.90;;;15.40;99.90;;;;;;4975236;28;20439;-65
2021/08/18 06:07:51;;;;;;;10.97;7.43;;;15.30;99.90;;;;;;4974288;28;20188;-65
2021/08/18 06:10:16;;;;;;;10.37;7.23;;;15.40;99.90;;;;;;4962047;28;20173;-65
2021/08/18 06:12:42;;;;;;;9.33;7.30;;;15.30;99.90;;;;;;4974949;28;20282;-65
2021/08/18 06:15:08;;;;;;;8.30;6.43;;;15.40;99.90;;;;;;4975748;28;20164;-65
2021/08/18 06:17:33;;;;;;;8.43;7.10;;;15.50;99.90;;;;;;4974446;28;20195;-65
2021/08/18 06:19:59;;;;;;;8.80;7.10;;;15.60;99.90;;;;;;4957191;28;20894;-65
2021/08/18 06:22:24;;;;;;;8.80;7.40;;;15.70;99.90;;;;;;4971051;28;20192;-65
2021/08/18 06:24:51;;;;;;;9.57;7.33;;;15.80;99.90;;;;;;4975180;28;20218;-64
2021/08/18 06:27:17;;;;;;;8.60;7.07;;;15.80;99.90;;;;;;4975503;28;20171;-65
2021/08/18 06:29:43;;;;;;;7.60;6.67;;;15.80;99.90;;;;;;4948619;28;20507;-64
2021/08/18 06:32:09;;;;;;;9.70;7.17;;;15.90;99.90;;;;;;4978681;28;20427;-64
2021/08/18 06:34:35;;;;;;;13.03;7.00;;;16.00;99.90;;;;;;4984403;28;20195;-65
2021/08/18 06:37:04;;;;;;;7.10;6.40;;;16.00;99.90;;;;;;4985221;28;20427;-66
2021/08/18 06:39:31;;;;;;;7.10;6.40;;;16.00;99.90;;;;;;4980252;28;20984;-67
2021/08/18 06:41:58;;;;;;;8.90;7.20;;;16.00;99.90;;;;;;4960826;28;20464;-67
2021/08/18 06:44:23;;;;;;;7.37;6.67;;;16.00;99.90;;;;;;4964535;28;20542;-64
2021/08/18 06:46:49;;;;;;;8.10;7.30;;;16.10;99.90;;;;;;4975105;28;20463;-64
2021/08/18 06:49:14;;;;;;;8.73;6.13;;;16.20;99.90;;;;;;4973329;28;20183;-64
2021/08/18 06:51:40;;;;;;;10.03;7.10;;;16.40;99.90;;;;;;4969166;28;20190;-64
2021/08/18 06:54:05;;;;;;;7.00;6.30;;;16.60;99.90;;;;;;4974776;28;20212;-63
2021/08/18 06:56:31;;;;;;;17.60;15.70;;;16.90;99.90;;;;;;4973683;28;20180;-64
2021/08/18 06:58:57;;;;;;;9.20;7.20;;;17.10;99.90;;;;;;4974593;28;20596;-63
2021/08/18 07:01:22;;;;;;;7.63;6.70;;;17.20;99.90;;;;;;4974964;28;20164;-62
2021/08/18 07:03:48;;;;;;;7.97;7.17;;;17.40;99.90;;;;;;4973685;28;20196;-62
2021/08/18 07:06:13;;;;;;;7.97;5.93;;;17.40;99.90;;;;;;4959007;28;20193;-62
2021/08/18 07:08:39;;;;;;;6.40;5.40;;;17.30;99.90;;;;;;4972404;28;20188;-63
2021/08/18 07:11:04;;;;;;;7.20;5.73;;;17.10;99.90;;;;;;4974446;28;20208;-63
2021/08/18 07:13:30;;;;;;;5.90;5.10;;;17.00;99.90;;;;;;4969872;28;20254;-63
2021/08/18 07:15:55;;;;;;;6.50;5.43;;;17.10;99.90;;;;;;4981210;28;20217;-63
2021/08/18 07:18:23;;;;;;;6.27;5.40;;;17.00;99.90;;;;;;4980826;28;20673;-63
2021/08/18 07:20:49;;;;;;;6.27;5.03;;;17.20;99.90;;;;;;4971065;28;20260;-63
2021/08/18 07:23:15;;;;;;;5.40;4.90;;;17.50;99.90;;;;;;4971036;28;20510;-64
2021/08/18 07:25:40;;;;;;;5.83;5.33;;;17.50;99.90;;;;;;4970525;28;20443;-64
2021/08/18 07:28:06;;;;;;;6.33;4.60;;;17.70;99.90;;;;;;4969745;28;20227;-63
2021/08/18 07:30:31;;;;;;;4.80;4.30;;;17.70;99.90;;;;;;4965114;28;20224;-63
2021/08/18 07:32:57;;;;;;;5.70;4.77;;;17.80;99.90;;;;;;4969819;28;20311;-63
2021/08/18 07:35:22;;;;;;;5.37;4.87;;;18.00;99.90;;;;;;4970136;28;20180;-63
2021/08/18 07:37:49;;;;;;;5.87;4.67;;;17.90;99.90;;;;;;4971161;28;20518;-63
2021/08/18 07:40:14;;;;;;;4.73;4.20;;;17.90;99.90;;;;;;4975285;28;20215;-63
2021/08/18 07:42:40;;;;;;;6.30;5.07;;;18.10;99.90;;;;;;4981438;28;20420;-63
2021/08/18 07:45:06;;;;;;;5.20;4.70;;;18.30;99.90;;;;;;4991757;28;20176;-64
2021/08/18 07:47:32;;;;;;;5.10;4.60;;;18.20;99.90;;;;;;4956548;28;20230;-63
2021/08/18 07:49:57;;;;;;;5.43;5.03;;;18.30;99.90;;;;;;4973552;28;20504;-63
2021/08/18 07:52:23;;;;;;;4.30;3.90;;;18.50;99.90;;;;;;4973934;28;20562;-62
2021/08/18 07:54:48;;;;;;;7.63;3.87;;;18.70;99.90;;;;;;4976996;28;20193;-62
2021/08/18 07:57:14;;;;;;;4.30;3.90;;;18.80;99.90;;;;;;4954848;29;20161;-64
2021/08/18 07:59:40;;;;;;;4.50;4.10;;;18.80;99.90;;;;;;4937839;29;20553;-64
2021/08/18 08:02:05;;;;;;;7.67;4.40;;;18.80;99.90;;;;;;4955135;29;20270;-63
2021/08/18 08:04:31;;;;;;;4.70;4.13;;;18.80;99.90;;;;;;4961682;28;20200;-63
2021/08/18 08:06:57;;;;;;;4.00;3.70;;;18.90;99.90;;;;;;4975098;28;20264;-63
2021/08/18 08:09:22;;;;;;;5.53;4.10;;;18.90;99.90;;;;;;4974967;28;20647;-64
2021/08/18 08:11:48;;;;;;;4.50;4.10;;;18.90;99.90;;;;;;4973888;28;20262;-63
2021/08/18 08:14:13;;;;;;;4.57;3.77;;;18.90;99.90;;;;;;4972431;28;20630;-63
2021/08/18 08:16:39;;;;;;;4.90;3.20;;;18.90;99.90;;;;;;4973596;28;20638;-64
2021/08/18 08:19:05;;;;;;;2.33;2.13;;;18.90;99.90;;;;;;4972910;28;20176;-62
2021/08/18 08:21:31;;;;;;;2.87;2.53;;;19.00;99.90;;;;;;4973361;28;20623;-63
2021/08/18 08:23:57;;;;;;;3.90;2.00;;;19.20;99.90;;;;;;4973335;28;20578;-62
2021/08/18 08:26:23;;;;;;;3.17;1.93;;;19.40;99.90;;;;;;4973533;28;20435;-63
2021/08/18 08:28:49;;;;;;;1.80;1.70;;;19.50;99.90;;;;;;4972962;28;20455;-63
2021/08/18 08:31:14;;;;;;;1.80;1.70;;;19.60;99.90;;;;;;4957257;28;20606;-63
2021/08/18 08:33:40;;;;;;;1.67;1.57;;;19.60;99.90;;;;;;4972730;28;20218;-63
2021/08/18 08:36:06;;;;;;;1.53;1.43;;;19.60;99.90;;;;;;4973955;28;20255;-64
2021/08/18 08:38:32;;;;;;;2.17;2.00;;;19.40;99.90;;;;;;4973601;28;20178;-64
2021/08/18 08:40:58;;;;;;;1.87;1.77;;;19.50;99.90;;;;;;4972082;28;20423;-63
2021/08/18 08:43:24;;;;;;;1.73;1.47;;;19.40;99.90;;;;;;4971954;28;20538;-64
2021/08/18 08:45:50;;;;;;;1.73;1.63;;;19.30;99.90;;;;;;4972629;28;20195;-64
2021/08/18 08:48:18;;;;;;;2.00;1.90;;;19.60;99.90;;;;;;4972543;28;20471;-65
2021/08/18 08:50:45;;;;;;;1.30;1.20;;;19.60;99.90;;;;;;4972621;28;20436;-65
2021/08/18 08:53:11;;;;;;;1.53;1.43;;;19.70;99.90;;;;;;4973533;28;20471;-63
2021/08/18 08:55:36;;;;;;;1.80;1.70;;;19.90;99.90;;;;;;4973041;28;20850;-63
2021/08/18 08:58:03;;;;;;;1.50;1.40;;;19.80;99.90;;;;;;4956031;28;20646;-63
2021/08/18 09:00:29;;;;;;;1.83;1.73;;;19.50;99.90;;;;;;4955490;28;20180;-63
2021/08/18 09:03:11;;;;;;;1.40;1.30;;;19.20;99.90;;;;;;4972747;28;20470;-64
2021/08/18 09:05:37;;;;;;;0.80;0.80;;;19.00;99.90;;;;;;4973396;28;20447;-63
2021/08/18 09:08:03;;;;;;;0.90;0.90;;;18.80;99.90;;;;;;4955730;28;20435;-63
2021/08/18 09:10:29;;;;;;;1.10;1.00;;;18.80;99.90;;;;;;4972970;28;20522;-64
2021/08/18 09:13:13;;;;;;;1.83;1.00;;;19.00;99.90;;;;;;4956018;28;20625;-65
2021/08/18 09:15:39;;;;;;;1.33;1.23;;;19.10;99.90;;;;;;4956312;28;20181;-65
2021/08/18 09:18:04;;;;;;;2.47;1.40;;;18.90;99.90;;;;;;4972950;28;20801;-63
2021/08/18 09:20:30;;;;;;;1.30;1.20;;;18.80;99.90;;;;;;4972108;28;20420;-63
2021/08/18 09:22:58;;;;;;;1.13;1.03;;;18.80;99.90;;;;;;4972603;28;20287;-63
2021/08/18 09:25:26;;;;;;;1.27;1.17;;;18.70;99.90;;;;;;4972238;28;20204;-63
2021/08/18 09:28:14;;;;;;;1.40;1.30;;;18.70;99.90;;;;;;4953381;29;20466;-63
2021/08/18 09:30:43;;;;;;;1.87;1.60;;;18.70;99.90;;;;;;4971466;28;20871;-63
2021/08/18 09:33:10;;;;;;;1.27;1.17;;;18.50;99.90;;;;;;4976002;28;20478;-63
2021/08/18 09:35:36;;;;;;;1.27;0.90;;;18.50;99.90;;;;;;4976110;28;20435;-63
2021/08/18 09:38:06;;;;;;;1.47;1.33;;;18.40;99.90;;;;;;4975466;28;20448;-63
2021/08/18 09:40:39;;;;;;;0.93;0.90;;;18.40;99.90;;;;;;4976002;28;20415;-63
2021/08/18 09:43:07;;;;;;;1.17;1.07;;;18.70;99.90;;;;;;4975767;28;20462;-63
2021/08/18 09:45:33;;;;;;;1.13;1.03;;;19.10;99.90;;;;;;4976012;28;20431;-64
2021/08/18 09:48:12;;;;;;;1.70;1.10;;;19.60;99.90;;;;;;4975868;28;20459;-63
2021/08/18 09:50:50;;;;;;;1.73;1.60;;;20.10;99.90;;;;;;4974773;28;20462;-64
2021/08/18 09:53:19;;;;;;;1.00;0.90;;;20.60;99.90;;;;;;4975704;28;20470;-64
2021/08/18 09:56:03;;;;;;;0.90;0.80;;;20.60;99.90;;;;;;4975546;28;20948;-64
2021/08/18 09:58:30;;;;;;;0.97;0.97;;;20.50;99.90;;;;;;4975661;28;20426;-64
2021/08/18 10:00:58;;;;;;;1.00;1.00;;;20.40;99.90;;;;;;4975904;28;20438;-64
2021/08/18 10:03:25;;;;;;;0.80;0.80;;;20.30;99.90;;;;;;4975709;28;20447;-64
2021/08/18 10:05:53;;;;;;;1.17;1.03;;;20.50;99.90;;;;;;4975735;28;20498;-63
2021/08/18 10:08:19;;;;;;;9.23;8.00;;;20.70;99.90;;;;;;4975669;28;20419;-64
2021/08/18 10:10:46;;;;;;;1.30;1.20;;;21.40;99.90;;;;;;4975576;28;20423;-63
2021/08/18 10:13:13;;;;;;;1.20;1.10;;;21.50;99.90;;;;;;4975553;28;20494;-62
2021/08/18 10:15:38;;;;;;;1.03;0.93;;;22.20;99.90;;;;;;4975434;28;20430;-62
2021/08/18 10:18:06;;;;;;;1.20;1.10;;;23.10;99.90;;;;;;4975556;28;20404;-62
2021/08/18 10:20:33;;;;;;;1.20;1.13;;;25.30;99.90;;;;;;4975269;28;20545;-63
2021/08/18 10:23:00;;;;;;;1.00;1.00;;;26.10;99.90;;;;;;4976007;28;20838;-63
2021/08/18 10:25:36;;;;;;;1.80;1.13;;;26.80;99.90;;;;;;4975504;28;20527;-63
2021/08/18 10:28:07;;;;;;;1.40;1.03;;;26.40;99.90;;;;;;4975746;28;20433;-63
2021/08/18 10:30:45;;;;;;;1.17;1.03;;;26.10;99.60;;;;;;4975113;28;20806;-63
2021/08/18 10:33:10;;;;;;;1.07;1.07;;;25.20;99.90;;;;;;4975048;28;20562;-63
2021/08/18 10:35:36;;;;;;;1.20;1.10;;;25.00;99.90;;;;;;4975231;28;20507;-63
2021/08/18 10:38:27;;;;;;;1.10;1.00;;;25.00;99.90;;;;;;4975367;28;20176;-63
2021/08/18 10:40:53;;;;;;;1.00;0.90;;;23.90;99.90;;;;;;4974991;28;20180;-63
2021/08/18 10:43:55;;;;;;;1.27;1.17;;;23.10;99.90;;;;;;4973646;28;20471;-63
2021/08/18 10:46:21;;;;;;;1.13;1.13;;;22.90;99.90;;;;;;4975080;28;20423;-63
2021/08/18 10:48:55;;;;;;;0.90;0.90;;;22.70;99.90;;;;;;4974767;28;20415;-62
2021/08/18 10:51:39;;;;;;;1.03;1.03;;;22.80;99.90;;;;;;4975140;28;20617;-63
2021/08/18 10:54:30;;;;;;;1.57;1.47;;;22.80;99.90;;;;;;4974816;28;20467;-63
2021/08/18 10:56:58;;;;;;;1.13;1.03;;;22.80;99.90;;;;;;4974869;28;20941;-63
2021/08/18 10:59:35;;;;;;;1.30;1.20;;;22.50;99.90;;;;;;4974745;28;20438;-62
2021/08/18 11:02:07;;;;;;;1.20;1.10;;;22.20;99.90;;;;;;4974947;28;20414;-63
2021/08/18 11:04:45;;;;;;;0.87;0.87;;;22.50;99.90;;;;;;4975115;28;20446;-63
2021/08/18 11:07:12;;;;;;;1.40;1.30;;;22.70;99.90;;;;;;4975055;28;20416;-63
2021/08/18 11:09:59;;;;;;;1.77;1.40;;;22.60;99.90;;;;;;4974565;28;20422;-63
2021/08/18 11:12:55;;;;;;;1.50;1.40;;;22.60;99.90;;;;;;4974762;28;20419;-63
2021/08/18 11:15:21;;;;;;;1.30;1.20;;;22.50;99.90;;;;;;4954595;28;20781;-63
2021/08/18 11:17:48;;;;;;;1.70;1.60;;;22.80;99.90;;;;;;4973347;28;20431;-63
2021/08/18 11:20:19;;;;;;;1.50;1.40;;;22.50;99.90;;;;;;4973955;28;20168;-64
2021/08/18 11:22:45;;;;;;;14.47;13.20;;;22.20;99.90;;;;;;4974188;28;20427;-64
2021/08/18 11:25:13;;;;;;;1.70;1.60;;;21.90;99.90;;;;;;4974468;28;20412;-64
2021/08/18 11:27:39;;;;;;;1.27;1.00;;;21.90;99.90;;;;;;4974285;28;20416;-64
2021/08/18 11:30:06;;;;;;;1.27;1.17;;;21.90;99.90;;;;;;4973981;28;20839;-64
2021/08/18 11:32:31;;;;;;;1.90;1.80;;;21.90;99.90;;;;;;4973913;28;20173;-64
2021/08/18 11:34:57;;;;;;;2.30;1.50;;;22.40;99.90;;;;;;4973945;28;20959;-64
2021/08/18 11:37:22;;;;;;;1.80;1.70;;;23.80;99.90;;;;;;4974112;28;20650;-64
2021/08/18 11:39:55;;;;;;;2.00;1.80;;;24.30;99.90;;;;;;4973833;28;20251;-64
2021/08/18 11:42:22;;;;;;;1.80;1.60;;;24.50;99.90;;;;;;4974074;28;20192;-64
2021/08/18 11:45:02;;;;;;;1.53;1.20;;;24.30;99.90;;;;;;4973880;28;20455;-64
2021/08/18 11:47:30;;;;;;;1.80;1.70;;;23.80;99.90;;;;;;4973848;28;20805;-64
2021/08/18 11:49:57;;;;;;;1.80;1.70;;;23.10;99.90;;;;;;4973508;28;20438;-64
2021/08/18 11:52:23;;;;;;;1.23;1.13;;;22.50;99.90;;;;;;4973878;28;20952;-64
2021/08/18 11:54:59;;;;;;;1.80;1.70;;;22.10;99.90;;;;;;4973081;28;20985;-64
2021/08/18 11:57:25;;;;;;;1.77;1.67;;;21.90;99.90;;;;;;4973826;28;20430;-64
2021/08/18 11:59:56;;;;;;;1.80;1.70;;;21.80;99.90;;;;;;4973345;28;20426;-64
2021/08/18 12:02:27;;;;;;;1.90;1.80;;;22.10;99.90;;;;;;4973750;28;20430;-64
2021/08/18 12:04:58;;;;;;;1.50;1.40;;;22.20;99.90;;;;;;4973495;28;20443;-64
2021/08/18 12:07:27;;;;;;;1.40;1.30;;;22.30;99.90;;;;;;4973632;28;20427;-64
2021/08/18 12:10:19;;;;;;;2.00;1.80;;;22.10;99.90;;;;;;4973333;28;20419;-64
2021/08/18 12:12:45;;;;;;;1.77;1.67;;;21.80;99.90;;;;;;4947878;28;20467;-64
2021/08/18 12:15:14;;;;;;;1.90;1.77;;;21.30;99.90;;;;;;4972781;28;20992;-64
2021/08/18 12:17:44;;;;;;;2.00;1.90;;;21.20;99.90;;;;;;4988133;28;20853;-63
2021/08/18 12:20:35;;;;;;;2.40;2.20;;;21.30;99.90;;;;;;4972217;28;20479;-63
2021/08/18 12:23:03;;;;;;;1.83;1.67;;;21.60;99.90;;;;;;4972720;28;20482;-63
2021/08/18 12:25:31;;;;;;;1.63;1.30;;;22.40;99.90;;;;;;4972902;28;20446;-64
2021/08/18 12:28:16;;;;;;;1.20;1.20;;;23.70;99.90;;;;;;4972633;28;20538;-64
2021/08/18 12:30:58;;;;;;;2.20;1.00;;;25.00;99.90;;;;;;4964735;28;20495;-63
2021/08/18 12:33:24;;;;;;;0.77;0.77;;;25.20;99.90;;;;;;4967067;28;20456;-64
2021/08/18 12:36:12;;;;;;;1.83;1.17;;;25.70;99.90;;;;;;4972257;28;20846;-64
2021/08/18 12:38:50;;;;;;;0.90;0.90;;;26.30;99.90;;;;;;4966810;28;20519;-64
2021/08/18 12:41:16;;;;;;;1.00;0.90;;;26.70;99.80;;;;;;4972421;28;20490;-64